| time (UTC) | temp C | wind direction | speed KPH | gust KPH | rain 1hr cm | rain 24hr cm | rain mn cm | humidity % | barometer mb |
| 20260510115843 | 20 | 105 | 0.0 | 1.6 | 0.00 | 0.00 | 0.00 | 94 | 1015.8 |
| 20260510114339 | 20 | 109 | 0.0 | 1.6 | 0.00 | 0.00 | 0.00 | 94 | 1015.6 |
| 20260510112838 | 20 | 121 | 0.0 | 1.6 | 0.00 | 0.00 | 0.00 | 94 | 1015.5 |
| 20260510111334 | 19 | 130 | 0.0 | 1.6 | 0.00 | 0.00 | 0.00 | 94 | 1015.0 |
| 20260510105833 | 18 | 127 | 0.0 | 1.6 | 0.00 | 0.00 | 0.00 | 94 | 1014.7 |
| 20260510104332 | 18 | 130 | 0.0 | 0.0 | 0.00 | 0.00 | 0.00 | 94 | 1014.6 |
| 20260510102832 | 18 | 130 | 0.0 | 0.0 | 0.00 | 0.00 | 0.00 | 94 | 1014.3 |
| 20260510101330 | 18 | 130 | 0.0 | 0.0 | 0.00 | 0.00 | 0.00 | 94 | 1014.4 |
| 20260510095826 | 17 | 137 | 0.0 | 0.0 | 0.00 | 0.00 | 0.00 | 94 | 1014.0 |
| 20260510094321 | 18 | 136 | 0.0 | 0.0 | 0.00 | 0.00 | 0.00 | 94 | 1014.1 |
| 20260510092816 | 18 | 134 | 0.0 | 0.0 | 0.00 | 0.00 | 0.00 | 94 | 1014.2 |
| 20260510091312 | 18 | 135 | 0.0 | 0.0 | 0.00 | 0.00 | 0.00 | 94 | 1014.3 |
| 20260510085812 | 18 | 133 | 0.0 | 0.0 | 0.00 | 0.00 | 0.00 | 94 | 1014.0 |
| 20260510084311 | 18 | 139 | 0.0 | 0.0 | 0.00 | 0.00 | 0.00 | 94 | 1014.1 |
| 20260510082806 | 18 | 139 | 0.0 | 0.0 | 0.00 | 0.00 | 0.00 | 94 | 1014.0 |
| 20260510081304 | 18 | 135 | 0.0 | 0.0 | 0.00 | 0.00 | 0.00 | 94 | 1014.1 |
| 20260510075804 | 18 | 137 | 0.0 | 1.6 | 0.00 | 0.00 | 0.00 | 94 | 1013.6 |
| 20260510074301 | 18 | 120 | 0.0 | 0.0 | 0.00 | 0.00 | 0.00 | 94 | 1013.5 |
| 20260510072801 | 18 | 130 | 0.0 | 0.0 | 0.00 | 0.00 | 0.00 | 94 | 1013.4 |
| 20260510071257 | 19 | 120 | 0.0 | 0.0 | 0.00 | 0.00 | 0.00 | 94 | 1013.5 |
| 20260510065752 | 19 | 129 | 0.0 | 0.0 | 0.00 | 0.00 | 0.00 | 94 | 1013.5 |
| 20260510064250 | 19 | 131 | 0.0 | 0.0 | 0.00 | 0.00 | 0.00 | 94 | 1013.4 |
| 20260510062744 | 20 | 126 | 0.0 | 0.0 | 0.00 | 0.00 | 0.00 | 94 | 1013.6 |
| 20260510061239 | 20 | 131 | 0.0 | 0.0 | 0.00 | 0.00 | 0.00 | 94 | 1013.6 |
| 20260510055734 | 20 | 102 | 1.6 | 3.2 | 0.00 | 0.00 | 0.00 | 94 | 1013.6 |
| 20260510054234 | 20 | 80 | 4.8 | 8.0 | 0.00 | 0.00 | 0.00 | 94 | 1013.7 |
| 20260510052731 | 20 | 102 | 1.6 | 3.2 | 0.00 | 0.00 | 0.00 | 94 | 1013.0 |
| 20260510051226 | 20 | 139 | 4.8 | 8.0 | 0.00 | 0.00 | 0.00 | 94 | 1012.8 |
| 20260510045723 | 20 | 109 | 4.8 | 11.3 | 0.00 | 3.25 | 3.25 | 94 | 1012.7 |
| 20260510044221 | 20 | 196 | 8.0 | 12.9 | 0.00 | 3.25 | 3.25 | 94 | 1012.8 |
| 20260510042715 | 20 | 172 | 6.4 | 12.9 | 0.00 | 3.25 | 3.25 | 94 | 1013.0 |
| 20260510041212 | 20 | 151 | 6.4 | 11.3 | 0.00 | 3.25 | 3.25 | 94 | 1013.2 |
| 20260510035707 | 20 | 156 | 4.8 | 11.3 | 0.00 | 3.25 | 3.25 | 94 | 1013.7 |
| 20260510034202 | 20 | 166 | 6.4 | 9.7 | 0.00 | 3.25 | 3.25 | 94 | 1014.1 |
| 20260510032658 | 20 | 135 | 0.0 | 3.2 | 0.00 | 3.25 | 3.25 | 94 | 1014.2 |
| 20260510031158 | 20 | 146 | 0.0 | 3.2 | 0.00 | 3.25 | 3.25 | 94 | 1014.3 |
| 20260510025653 | 20 | 150 | 1.6 | 1.6 | 0.00 | 3.25 | 3.25 | 94 | 1014.7 |
| 20260510024149 | 20 | 148 | 1.6 | 1.6 | 0.00 | 3.25 | 3.25 | 94 | 1014.7 |
| 20260510022649 | 20 | 144 | 0.0 | 0.0 | 0.00 | 3.25 | 3.25 | 94 | 1014.5 |
| 20260510021143 | 20 | 132 | 0.0 | 0.0 | 0.00 | 3.25 | 3.25 | 94 | 1014.4 |
| 20260510015641 | 20 | 134 | 0.0 | 0.0 | 0.00 | 3.25 | 3.25 | 94 | 1014.3 |
| 20260510014136 | 20 | 134 | 0.0 | 0.0 | 0.00 | 3.25 | 3.25 | 94 | 1013.8 |
| 20260510012632 | 20 | 138 | 0.0 | 0.0 | 0.00 | 3.25 | 3.25 | 94 | 1013.7 |
| 20260510011130 | 20 | 137 | 1.6 | 3.2 | 0.00 | 3.25 | 3.25 | 94 | 1013.5 |
| 20260510005631 | 20 | 143 | 3.2 | 8.0 | 0.00 | 3.25 | 3.25 | 94 | 1013.2 |
| 20260510004130 | 20 | 130 | 3.2 | 11.3 | 0.00 | 3.25 | 3.25 | 94 | 1012.7 |
| 20260510002629 | 20 | 114 | 6.4 | 9.7 | 0.00 | 3.25 | 3.25 | 94 | 1012.9 |
| 20260510001128 | 20 | 143 | 3.2 | 8.0 | 0.00 | 3.25 | 3.25 | 94 | 1012.9 |
| 20260509235627 | 20 | 139 | 4.8 | 8.0 | 0.00 | 3.25 | 3.25 | 94 | 1012.8 |
| 20260509234123 | 20 | 146 | 3.2 | 4.8 | 0.00 | 3.25 | 3.25 | 94 | 1013.0 |
| 20260509232619 | 20 | 153 | 1.6 | 4.8 | 0.00 | 3.25 | 3.25 | 94 | 1012.9 |
| 20260509231117 | 20 | 144 | 1.6 | 3.2 | 0.00 | 3.25 | 3.25 | 94 | 1012.9 |
| 20260509225612 | 20 | 122 | 0.0 | 1.6 | 0.00 | 3.25 | 3.25 | 94 | 1012.8 |
| 20260509224112 | 20 | 275 | 4.8 | 4.8 | 0.00 | 3.25 | 3.25 | 94 | 1013.0 |
| 20260509222608 | 20 | 154 | 6.4 | 8.0 | 0.13 | 3.25 | 3.25 | 94 | 1012.8 |
| 20260509221108 | 20 | 145 | 1.6 | 1.6 | 0.00 | 3.23 | 3.23 | 94 | 1012.9 |
| 20260509215608 | 20 | 130 | 1.6 | 3.2 | 0.00 | 3.23 | 3.23 | 94 | 1012.5 |
| 20260509214105 | 20 | 130 | 1.6 | 3.2 | 0.00 | 3.23 | 3.23 | 94 | 1012.5 |
| 20260509212601 | 20 | 138 | 0.0 | 0.0 | 0.30 | 3.20 | 3.20 | 94 | 1013.0 |
| 20260509211056 | 20 | 134 | 0.0 | 0.0 | 0.18 | 3.15 | 3.15 | 94 | 1012.8 |
| 20260509205555 | 20 | 121 | 1.6 | 1.6 | 0.00 | 3.12 | 3.12 | 94 | 1012.6 |
| 20260509204050 | 20 | 107 | 0.0 | 1.6 | 0.00 | 3.12 | 3.12 | 94 | 1012.2 |
| 20260509202544 | 20 | 108 | 6.4 | 11.3 | 0.00 | 3.12 | 3.12 | 94 | 1011.9 |
| 20260509201039 | 20 | 90 | 3.2 | 8.0 | 0.00 | 3.12 | 3.12 | 94 | 1012.4 |
| 20260509195537 | 20 | 129 | 1.6 | 8.0 | 0.00 | 3.12 | 3.12 | 94 | 1012.9 |
| 20260509194036 | 20 | 114 | 4.8 | 4.8 | 0.00 | 3.12 | 3.12 | 94 | 1013.1 |
| 20260509192535 | 20 | 102 | 0.0 | 1.6 | 0.00 | 3.12 | 3.12 | 94 | 1013.9 |
| 20260509191032 | 19 | 99 | 3.2 | 3.2 | 0.00 | 3.10 | 3.10 | 94 | 1013.8 |
| 20260509185531 | 19 | 139 | 4.8 | 9.7 | 0.48 | 3.10 | 3.10 | 94 | 1013.6 |
| 20260509184027 | 19 | 131 | 3.2 | 3.2 | 0.30 | 3.02 | 3.02 | 94 | 1014.1 |
| 20260509182527 | 19 | 152 | 3.2 | 3.2 | 0.18 | 2.95 | 2.95 | 94 | 1014.3 |
| 20260509181025 | 19 | 147 | 6.4 | 9.7 | 0.00 | 2.90 | 2.90 | 94 | 1013.6 |
| 20260509175525 | 19 | 165 | 4.8 | 9.7 | 0.18 | 2.87 | 2.87 | 94 | 1013.8 |
| 20260509174025 | 19 | 143 | 6.4 | 11.3 | 0.18 | 2.82 | 2.82 | 94 | 1014.0 |
| 20260509172526 | 19 | 140 | 4.8 | 11.3 | 0.13 | 2.79 | 2.79 | 94 | 1014.2 |
| 20260509171020 | 19 | 72 | 3.2 | 11.3 | 0.13 | 2.74 | 2.74 | 94 | 1013.5 |
| 20260509165516 | 19 | 139 | 4.8 | 14.5 | 0.13 | 2.69 | 2.69 | 94 | 1013.6 |
| 20260509164015 | 20 | 170 | 6.4 | 9.7 | 1.07 | 2.64 | 2.64 | 94 | 1014.3 |
| 20260509162511 | 20 | 107 | 3.2 | 8.0 | 0.00 | 2.41 | 2.41 | 94 | 1014.9 |
| 20260509161010 | 20 | 53 | 3.2 | 8.0 | 0.30 | 2.36 | 2.36 | 94 | 1014.1 |
| 20260509155509 | 20 | 75 | 6.4 | 8.0 | 0.13 | 2.31 | 2.31 | 94 | 1014.2 |
| 20260509154006 | 20 | 71 | 3.2 | 4.8 | 0.30 | 2.26 | 2.26 | 94 | 1014.3 |
| 20260509152501 | 19 | 54 | 4.8 | 9.7 | 0.13 | 2.18 | 2.18 | 94 | 1013.9 |
| 20260509150958 | 19 | 87 | 1.6 | 4.8 | 0.79 | 2.11 | 2.11 | 94 | 1014.1 |
| 20260509145454 | 18 | 130 | 0.0 | 1.6 | 0.79 | 1.96 | 1.96 | 94 | 1014.0 |
| 20260509143950 | 18 | 52 | 1.6 | 3.2 | 0.18 | 1.73 | 1.73 | 94 | 1014.2 |
| 20260509142445 | 18 | 133 | 1.6 | 3.2 | 0.61 | 1.65 | 1.65 | 94 | 1014.0 |
| 20260509140941 | 18 | 133 | 0.0 | 1.6 | 1.07 | 1.32 | 1.32 | 94 | 1014.2 |
| 20260509135438 | 18 | 109 | 1.6 | 1.6 | 0.61 | 1.09 | 1.09 | 94 | 1013.5 |
| 20260509133936 | 18 | 64 | 3.2 | 3.2 | 0.48 | 0.89 | 0.89 | 94 | 1014.2 |
| 20260509132434 | 18 | 48 | 9.7 | 12.9 | 2.77 | 0.74 | 0.74 | 94 | 1014.2 |
| 20260509130931 | 18 | 19 | 17.7 | 22.5 | 1.19 | 0.20 | 0.20 | 93 | 1014.5 |
| 20260509125426 | 22 | 355 | 11.3 | 17.7 | 0.00 | 0.00 | 0.00 | 92 | 1014.3 |
| 20260509123923 | 23 | 140 | 0.0 | 0.0 | 0.00 | 0.00 | 0.00 | 94 | 1012.4 |
| 20260509122419 | 22 | 135 | 1.6 | 3.2 | 0.00 | 0.00 | 0.00 | 94 | 1011.7 |
| 20260509120916 | 22 | 150 | 3.2 | 4.8 | 0.00 | 0.00 | 0.00 | 94 | 1011.6 |